Terminal Aerodrome Forecast
Issued by NWS

Home | Current Version | Previous Version | Text Only | Print | Product List | Glossary On
Versions: 1 2 3 4 5 6 7 8 9 10 11 12 13 14 15 16 17 18 19
673
FTUS41 KCLE 192332
TAFFDY
TAF
KFDY 192332Z 2000/2024 19012G20KT P6SM -SHRA OVC050 WS020/23040KT
     FM200300 19015G25KT P6SM VCSH OVC070
     FM200900 20018G30KT P6SM OVC100
     FM201400 21028G32KT P6SM BKN070=

USA.gov is the U.S. government's official web portal to all federal, state and local government web resources and services.